Time;durP1;ratioP1;P1;durP2;ratioP2;P2;SDS_P1;SDS_P2;PMS_P1;PMS_P2;Temp;Humidity;BMP_temperature;BMP_pressure;BME280_temperature;BME280_humidity;BME280_pressure;Samples;Min_cycle;Max_cycle;Signal;HPM_P1;HPM_P2
2023/05/05 00:01:02;;;;;;;;;;;;;;;;;;4972254;28;19923;-60
2023/05/05 00:03:27;;;;;;;;;;;;;;;;;;4961614;28;19922;-59
2023/05/05 00:05:55;;;;;;;;;;;;;;;;;;4970370;28;19918;-58
2023/05/05 00:08:20;;;;;;;;;;;;;;;;;;4961932;28;19958;-58
2023/05/05 00:10:46;;;;;;;;;;;;;;;;;;4981516;28;19917;-59
2023/05/05 00:13:13;;;;;;;;;;;;;;;;;;4980549;28;20373;-60
2023/05/05 00:15:44;;;;;;;;;;;;;;;;;;4969566;28;19925;-58
2023/05/05 00:18:12;;;;;;;;;;;;;;;;;;4963858;28;19995;-58
2023/05/05 00:20:37;;;;;;;;;;;;;;;;;;4951838;28;19917;-59
2023/05/05 00:23:05;;;;;;;;;;;;;;;;;;4980465;28;19953;-58
2023/05/05 00:25:33;;;;;;;;;;;;;;;;;;4975140;28;20392;-58
2023/05/05 00:28:00;;;;;;;;;;;;;;;;;;4962354;28;19922;-58
2023/05/05 00:30:26;;;;;;;;;;;;;;;;;;4969075;28;20046;-58
2023/05/05 00:32:54;;;;;;;;;;;;;;;;;;4964284;28;20392;-59
2023/05/05 00:35:19;;;;;;;;;;;;;;;;;;4954555;28;19947;-58
2023/05/05 00:37:45;;;;;;;;;;;;;;;;;;4959422;28;20384;-59
2023/05/05 00:40:13;;;;;;;;;;;;;;;;;;4965644;28;19928;-59
2023/05/05 00:42:38;;;;;;;;;;;;;;;;;;4953166;28;20207;-58
2023/05/05 00:45:06;;;;;;;;;;;;;;;;;;4953634;28;19932;-58
2023/05/05 00:47:31;;;;;;;;;;;;;;;;;;4959660;28;19921;-59
2023/05/05 00:49:57;;;;;;;;;;;;;;;;;;4974602;28;20235;-58
2023/05/05 00:52:22;;;;;;;;;;;;;;;;;;4952971;28;20377;-57
2023/05/05 00:54:52;;;;;;;;;;;;;;;;;;4959921;28;19929;-58
2023/05/05 00:57:21;;;;;;;;;;;;;;;;;;4977938;28;20004;-58
2023/05/05 00:59:51;;;;;;;;;;;;;;;;;;4952179;28;20384;-59
2023/05/05 01:02:17;;;;;;;;;;;;;;;;;;4979720;28;19979;-58
2023/05/05 01:04:43;;;;;;;;;;;;;;;;;;4976984;28;19918;-58
2023/05/05 01:07:11;;;;;;;;;;;;;;;;;;4982414;28;20431;-59
2023/05/05 01:09:36;;;;;;;;;;;;;;;;;;4976752;28;20071;-59
2023/05/05 01:12:03;;;;;;;;;;;;;;;;;;4959325;28;19928;-60
2023/05/05 01:14:31;;;;;;;;;;;;;;;;;;4965298;28;20412;-59
2023/05/05 01:16:57;;;;;;;;;;;;;;;;;;4961177;28;20245;-59
2023/05/05 01:19:22;;;;;;;;;;;;;;;;;;4976026;28;20304;-59
2023/05/05 01:21:47;;;;;;;;;;;;;;;;;;4959857;28;19921;-60
2023/05/05 01:24:15;;;;;;;;;;;;;;;;;;4977221;28;20427;-60
2023/05/05 01:26:43;;;;;;;;;;;;;;;;;;4958795;28;19924;-60
2023/05/05 01:29:11;;;;;;;;;;;;;;;;;;4965222;28;19932;-59
2023/05/05 01:31:37;;;;;;;;;;;;;;;;;;4967752;28;19921;-59
2023/05/05 01:34:05;;;;;;;;;;;;;;;;;;4942875;28;20366;-58
2023/05/05 01:36:30;;;;;;;;;;;;;;;;;;4949066;28;20369;-58
2023/05/05 01:38:56;;;;;;;;;;;;;;;;;;4965337;28;19953;-58
2023/05/05 01:41:24;;;;;;;;;;;;;;;;;;4972327;28;19925;-58
2023/05/05 01:43:49;;;;;;;;;;;;;;;;;;4987871;28;19929;-58
2023/05/05 01:46:17;;;;;;;;;;;;;;;;;;4971499;28;19937;-58
2023/05/05 01:48:45;;;;;;;;;;;;;;;;;;4966309;28;19917;-59
2023/05/05 01:51:14;;;;;;;;;;;;;;;;;;4970529;28;19964;-58
2023/05/05 01:53:42;;;;;;;;;;;;;;;;;;4987114;28;20048;-59
2023/05/05 01:56:07;;;;;;;;;;;;;;;;;;4967845;28;20211;-59
2023/05/05 01:58:32;;;;;;;;;;;;;;;;;;4986895;28;19924;-59
2023/05/05 02:00:57;;;;;;;;;;;;;;;;;;4968971;28;19922;-58
2023/05/05 02:03:25;;;;;;;;;;;;;;;;;;4974584;28;20403;-58
2023/05/05 02:05:53;;;;;;;;;;;;;;;;;;4978139;28;20053;-58
2023/05/05 02:08:21;;;;;;;;;;;;;;;;;;4967533;28;19925;-58
2023/05/05 02:10:46;;;;;;;;;;;;;;;;;;4987812;28;20426;-58
2023/05/05 02:13:14;;;;;;;;;;;;;;;;;;4987002;28;19925;-59
2023/05/05 02:15:39;;;;;;;;;;;;;;;;;;4986228;28;20490;-59
2023/05/05 02:18:05;;;;;;;;;;;;;;;;;;4968600;28;19976;-58
2023/05/05 02:20:30;;;;;;;;;;;;;;;;;;4988315;28;19918;-59
2023/05/05 02:22:55;;;;;;;;;;;;;;;;;;4950322;28;20306;-58
2023/05/05 02:25:25;;;;;;;;;;;;;;;;;;4987772;28;21803;-59
2023/05/05 02:27:51;;;;;;;;;;;;;;;;;;4956358;28;20266;-59
2023/05/05 02:30:17;;;;;;;;;;;;;;;;;;4986944;28;19921;-58
2023/05/05 02:32:42;;;;;;;;;;;;;;;;;;4982200;28;20423;-59
2023/05/05 02:35:10;;;;;;;;;;;;;;;;;;4960999;28;19960;-59
2023/05/05 02:37:36;;;;;;;;;;;;;;;;;;4956620;28;20040;-59
2023/05/05 02:40:01;;;;;;;;;;;;;;;;;;4976456;28;20020;-60
2023/05/05 02:42:29;;;;;;;;;;;;;;;;;;4960784;28;19928;-59
2023/05/05 02:44:57;;;;;;;;;;;;;;;;;;4954492;28;19918;-60
2023/05/05 02:47:27;;;;;;;;;;;;;;;;;;4961933;28;19976;-59
2023/05/05 02:49:56;;;;;;;;;;;;;;;;;;4939477;28;19917;-58
2023/05/05 02:52:21;;;;;;;;;;;;;;;;;;4938413;28;19932;-59
2023/05/05 02:54:46;;;;;;;;;;;;;;;;;;4958191;28;19994;-59
2023/05/05 02:57:11;;;;;;;;;;;;;;;;;;4950299;28;21542;-58
2023/05/05 02:59:39;;;;;;;;;;;;;;;;;;4936202;28;20040;-59
2023/05/05 03:02:07;;;;;;;;;;;;;;;;;;4957740;28;19940;-58
2023/05/05 03:04:35;;;;;;;;;;;;;;;;;;4970249;28;20060;-58
2023/05/05 03:07:03;;;;;;;;;;;;;;;;;;4974965;28;20016;-60
2023/05/05 03:09:31;;;;;;;;;;;;;;;;;;4953066;28;19929;-59
2023/05/05 03:11:59;;;;;;;;;;;;;;;;;;4937297;28;20012;-60
2023/05/05 03:14:27;;;;;;;;;;;;;;;;;;4957845;28;19925;-60
2023/05/05 03:16:57;;;;;;;;;;;;;;;;;;4936907;28;20364;-59
2023/05/05 03:19:26;;;;;;;;;;;;;;;;;;4950266;28;19984;-59
2023/05/05 03:21:53;;;;;;;;;;;;;;;;;;4947755;28;19926;-58
2023/05/05 03:24:22;;;;;;;;;;;;;;;;;;4956416;28;20048;-59
2023/05/05 03:26:47;;;;;;;;;;;;;;;;;;4967955;28;19922;-58
2023/05/05 03:29:12;;;;;;;;;;;;;;;;;;4972010;28;19922;-58
2023/05/05 03:31:40;;;;;;;;;;;;;;;;;;4954286;28;20025;-59
2023/05/05 03:34:09;;;;;;;;;;;;;;;;;;4972433;28;20399;-60
2023/05/05 03:36:34;;;;;;;;;;;;;;;;;;4959946;28;19921;-59
2023/05/05 03:38:59;;;;;;;;;;;;;;;;;;4991448;28;19926;-59
2023/05/05 03:41:28;;;;;;;;;;;;;;;;;;4968922;28;20472;-58
2023/05/05 03:43:53;;;;;;;;;;;;;;;;;;4968177;28;19921;-58
2023/05/05 03:46:19;;;;;;;;;;;;;;;;;;4973523;28;19925;-58
2023/05/05 03:48:47;;;;;;;;;;;;;;;;;;4957811;28;19983;-59
2023/05/05 03:51:15;;;;;;;;;;;;;;;;;;4966585;28;20768;-60
2023/05/05 03:53:43;;;;;;;;;;;;;;;;;;4990552;28;19983;-59
2023/05/05 03:56:08;;;;;;;;;;;;;;;;;;4991870;28;19936;-60
2023/05/05 03:58:38;;;;;;;;;;;;;;;;;;4964174;28;19983;-60
2023/05/05 04:01:07;;;;;;;;;;;;;;;;;;4991557;28;20201;-59
2023/05/05 04:03:34;;;;;;;;;;;;;;;;;;4957352;28;20395;-60
2023/05/05 04:06:06;;;;;;;;;;;;;;;;;;4992574;28;19944;-60
2023/05/05 04:08:31;;;;;;;;;;;;;;;;;;4989637;28;19975;-59
2023/05/05 04:11:01;;;;;;;;;;;;;;;;;;4972578;28;21567;-59
2023/05/05 04:13:29;;;;;;;;;;;;;;;;;;4956150;28;20107;-60
2023/05/05 04:15:58;;;;;;;;;;;;;;;;;;4973894;28;19925;-60
2023/05/05 04:18:23;;;;;;;;;;;;;;;;;;4990340;28;20514;-61
2023/05/05 04:20:48;;;;;;;;;;;;;;;;;;4956872;28;20009;-60
2023/05/05 04:23:16;;;;;;;;;;;;;;;;;;4965455;28;19936;-61
2023/05/05 04:25:41;;;;;;;;;;;;;;;;;;4956609;28;19928;-61
2023/05/05 04:28:07;;;;;;;;;;;;;;;;;;4968133;28;20511;-62
2023/05/05 04:30:35;;;;;;;;;;;;;;;;;;4955223;28;19946;-65
2023/05/05 04:33:03;;;;;;;;;;;;;;;;;;4970075;28;20005;-64
2023/05/05 04:35:30;;;;;;;;;;;;;;;;;;4980347;28;19929;-62
2023/05/05 04:37:59;;;;;;;;;;;;;;;;;;4966574;28;19928;-61
2023/05/05 04:40:26;;;;;;;;;;;;;;;;;;4963790;28;19921;-61
2023/05/05 04:42:52;;;;;;;;;;;;;;;;;;4952589;28;19991;-61
2023/05/05 04:45:17;;;;;;;;;;;;;;;;;;4950205;28;20463;-60
2023/05/05 04:47:45;;;;;;;;;;;;;;;;;;4975053;28;19922;-60
2023/05/05 04:50:10;;;;;;;;;;;;;;;;;;4975806;28;20280;-62
2023/05/05 04:52:36;;;;;;;;;;;;;;;;;;4957758;28;20281;-62
2023/05/05 04:55:01;;;;;;;;;;;;;;;;;;4959137;28;20012;-63
2023/05/05 04:57:27;;;;;;;;;;;;;;;;;;4954840;28;20000;-64
2023/05/05 04:59:55;;;;;;;;;;;;;;;;;;4976887;28;19924;-65
2023/05/05 05:02:20;;;;;;;;;;;;;;;;;;4977532;28;19925;-63
2023/05/05 05:04:45;;;;;;;;;;;;;;;;;;4977822;28;19940;-63
2023/05/05 05:07:11;;;;;;;;;;;;;;;;;;4960514;28;19921;-62
2023/05/05 05:09:36;;;;;;;;;;;;;;;;;;4960338;28;19972;-62
2023/05/05 05:12:01;;;;;;;;;;;;;;;;;;4950494;28;19918;-61
2023/05/05 05:14:29;;;;;;;;;;;;;;;;;;4954369;28;19918;-60
2023/05/05 05:16:55;;;;;;;;;;;;;;;;;;4960229;28;19925;-60
2023/05/05 05:19:20;;;;;;;;;;;;;;;;;;4980424;28;21625;-60
2023/05/05 05:21:49;;;;;;;;;;;;;;;;;;4969903;28;19930;-60
2023/05/05 05:24:15;;;;;;;;;;;;;;;;;;4962083;28;19921;-60
2023/05/05 05:26:40;;;;;;;;;;;;;;;;;;4961323;28;19948;-60
2023/05/05 05:29:06;;;;;;;;;;;;;;;;;;4944618;28;19922;-60
2023/05/05 05:31:35;;;;;;;;;;;;;;;;;;4957194;28;19922;-60
2023/05/05 05:34:01;;;;;;;;;;;;;;;;;;4979308;28;19926;-61
2023/05/05 05:36:26;;;;;;;;;;;;;;;;;;4978233;28;19921;-61
2023/05/05 05:38:51;;;;;;;;;;;;;;;;;;4979128;28;20392;-61
2023/05/05 05:41:17;;;;;;;;;;;;;;;;;;4975884;28;19918;-61
2023/05/05 05:43:42;;;;;;;;;;;;;;;;;;4968409;28;19944;-61
2023/05/05 05:46:08;;;;;;;;;;;;;;;;;;4970289;28;19940;-64
2023/05/05 05:48:33;;;;;;;;;;;;;;;;;;4959257;28;19918;-60
2023/05/05 05:51:00;;;;;;;;;;;;;;;;;;4949560;28;19940;-60
2023/05/05 05:53:26;;;;;;;;;;;;;;;;;;4963965;28;20416;-60
2023/05/05 05:55:51;;;;;;;;;;;;;;;;;;4952356;28;19925;-61
2023/05/05 05:58:17;;;;;;;;;;;;;;;;;;4949781;28;20060;-62
2023/05/05 06:00:42;;;;;;;;;;;;;;;;;;4960207;28;19968;-62
2023/05/05 06:03:08;;;;;;;;;;;;;;;;;;4967309;28;20025;-62
2023/05/05 06:05:36;;;;;;;;;;;;;;;;;;4974676;28;19976;-62
2023/05/05 06:08:01;;;;;;;;;;;;;;;;;;4969103;28;20083;-61
2023/05/05 06:10:27;;;;;;;;;;;;;;;;;;4973009;28;20594;-61
2023/05/05 06:12:52;;;;;;;;;;;;;;;;;;4975165;28;19921;-62
2023/05/05 06:15:20;;;;;;;;;;;;;;;;;;4952605;28;19973;-62
2023/05/05 06:17:48;;;;;;;;;;;;;;;;;;4959482;28;19929;-60
2023/05/05 06:20:17;;;;;;;;;;;;;;;;;;4965369;28;19953;-62
2023/05/05 06:22:44;;;;;;;;;;;;;;;;;;4975777;28;20020;-62
2023/05/05 06:25:15;;;;;;;;;;;;;;;;;;4978197;28;20040;-63
2023/05/05 06:27:40;;;;;;;;;;;;;;;;;;4962529;28;19923;-61
2023/05/05 06:30:09;;;;;;;;;;;;;;;;;;4964726;28;19937;-63
2023/05/05 06:32:36;;;;;;;;;;;;;;;;;;4981999;28;19925;-63
2023/05/05 06:35:02;;;;;;;;;;;;;;;;;;4960601;28;19977;-64
2023/05/05 06:37:30;;;;;;;;;;;;;;;;;;4961676;28;19964;-63
2023/05/05 06:39:55;;;;;;;;;;;;;;;;;;4984335;28;19917;-63
2023/05/05 06:42:21;;;;;;;;;;;;;;;;;;4964023;28;20019;-63
2023/05/05 06:44:46;;;;;;;;;;;;;;;;;;4964939;28;19921;-63
2023/05/05 06:47:14;;;;;;;;;;;;;;;;;;4983082;28;19924;-63
2023/05/05 06:49:44;;;;;;;;;;;;;;;;;;4950881;28;20271;-63
2023/05/05 06:52:10;;;;;;;;;;;;;;;;;;4963695;28;19933;-63
2023/05/05 06:54:37;;;;;;;;;;;;;;;;;;4969976;28;19929;-62
2023/05/05 06:57:03;;;;;;;;;;;;;;;;;;4967007;28;19921;-63
2023/05/05 06:59:31;;;;;;;;;;;;;;;;;;4952580;28;20082;-62
2023/05/05 07:01:58;;;;;;;;;;;;;;;;;;4979167;28;19995;-62
2023/05/05 07:04:26;;;;;;;;;;;;;;;;;;4955700;28;20123;-63
2023/05/05 07:06:54;;;;;;;;;;;;;;;;;;4952789;28;20408;-62
2023/05/05 07:09:19;;;;;;;;;;;;;;;;;;4968446;28;20032;-62
2023/05/05 07:11:47;;;;;;;;;;;;;;;;;;4951606;28;20357;-61
2023/05/05 07:14:12;;;;;;;;;;;;;;;;;;4968670;28;19929;-61
2023/05/05 07:16:40;;;;;;;;;;;;;;;;;;4970555;28;20530;-62
2023/05/05 07:19:08;;;;;;;;;;;;;;;;;;4963881;28;20042;-63
2023/05/05 07:21:38;;;;;;;;;;;;;;;;;;4973529;28;20480;-62
2023/05/05 07:24:04;;;;;;;;;;;;;;;;;;4977678;28;19960;-63
2023/05/05 07:26:29;;;;;;;;;;;;;;;;;;4963329;28;20028;-63
2023/05/05 07:28:57;;;;;;;;;;;;;;;;;;4955590;28;19976;-62
2023/05/05 07:31:25;;;;;;;;;;;;;;;;;;4950554;28;19918;-62
2023/05/05 07:33:53;;;;;;;;;;;;;;;;;;4958847;28;19936;-63
2023/05/05 07:36:18;;;;;;;;;;;;;;;;;;4972585;28;19922;-63
2023/05/05 07:38:47;;;;;;;;;;;;;;;;;;4953233;28;20400;-63
2023/05/05 07:41:12;;;;;;;;;;;;;;;;;;4980657;28;19941;-63
2023/05/05 07:43:40;;;;;;;;;;;;;;;;;;4985037;28;19971;-63
2023/05/05 07:46:06;;;;;;;;;;;;;;;;;;4960242;28;19921;-63
2023/05/05 07:48:31;;;;;;;;;;;;;;;;;;4982493;28;20373;-63
2023/05/05 07:50:57;;;;;;;;;;;;;;;;;;4968605;28;20457;-63
2023/05/05 07:53:22;;;;;;;;;;;;;;;;;;4972027;28;20377;-64
2023/05/05 07:55:47;;;;;;;;;;;;;;;;;;4952448;28;21745;-64
2023/05/05 07:58:13;;;;;;;;;;;;;;;;;;4982573;28;20023;-64
2023/05/05 08:00:38;;;;;;;;;;;;;;;;;;4967662;28;20110;-63
2023/05/05 08:03:03;;;;;;;;;;;;;;;;;;4963046;28;19921;-62
2023/05/05 08:05:31;;;;;;;;;;;;;;;;;;4986808;28;20639;-63
2023/05/05 08:07:57;;;;;;;;;;;;;;;;;;4981954;28;19917;-64
2023/05/05 08:10:22;;;;;;;;;;;;;;;;;;4963565;28;20372;-62
2023/05/05 08:12:50;;;;;;;;;;;;;;;;;;4962230;28;19964;-62
2023/05/05 08:15:15;;;;;;;;;;;;;;;;;;4981261;28;19929;-61
2023/05/05 08:17:44;;;;;;;;;;;;;;;;;;4953425;28;19929;-63
2023/05/05 08:20:12;;;;;;;;;;;;;;;;;;4962471;28;19926;-64
2023/05/05 08:22:43;;;;;;;;;;;;;;;;;;4963708;28;19930;-63
2023/05/05 08:25:09;;;;;;;;;;;;;;;;;;4956597;28;19921;-64
2023/05/05 08:27:37;;;;;;;;;;;;;;;;;;4951106;28;20048;-63
2023/05/05 08:30:03;;;;;;;;;;;;;;;;;;4961226;28;19921;-64
2023/05/05 08:32:28;;;;;;;;;;;;;;;;;;4960596;28;19937;-64
2023/05/05 08:34:56;;;;;;;;;;;;;;;;;;4978521;28;21433;-64
2023/05/05 08:37:24;;;;;;;;;;;;;;;;;;4975838;28;20377;-63
2023/05/05 08:39:53;;;;;;;;;;;;;;;;;;4965244;28;19924;-64
2023/05/05 08:42:23;;;;;;;;;;;;;;;;;;4967633;28;19930;-64
2023/05/05 08:44:51;;;;;;;;;;;;;;;;;;4967061;28;19921;-64
2023/05/05 08:47:19;;;;;;;;;;;;;;;;;;4970066;28;19922;-64
2023/05/05 08:49:46;;;;;;;;;;;;;;;;;;4968514;28;20730;-64
2023/05/05 08:52:11;;;;;;;;;;;;;;;;;;4975803;28;19990;-64
2023/05/05 08:54:39;;;;;;;;;;;;;;;;;;4959839;28;19999;-63
2023/05/05 08:57:04;;;;;;;;;;;;;;;;;;4981407;28;20173;-63
2023/05/05 08:59:33;;;;;;;;;;;;;;;;;;4968120;28;19922;-63
2023/05/05 09:01:58;;;;;;;;;;;;;;;;;;4976118;28;20276;-63
2023/05/05 09:04:23;;;;;;;;;;;;;;;;;;4952396;28;19927;-63
2023/05/05 09:06:49;;;;;;;;;;;;;;;;;;4960874;28;20721;-64
2023/05/05 09:09:14;;;;;;;;;;;;;;;;;;4955790;28;20347;-63
2023/05/05 09:11:40;;;;;;;;;;;;;;;;;;4961558;28;19921;-64
2023/05/05 09:14:05;;;;;;;;;;;;;;;;;;4938449;28;19928;-63
2023/05/05 09:16:30;;;;;;;;;;;;;;;;;;4978295;28;19933;-64
2023/05/05 09:18:58;;;;;;;;;;;;;;;;;;4961334;28;20005;-63
2023/05/05 09:21:29;;;;;;;;;;;;;;;;;;4962801;28;19933;-63
2023/05/05 09:23:55;;;;;;;;;;;;;;;;;;4979183;28;19929;-62
2023/05/05 09:26:20;;;;;;;;;;;;;;;;;;4971044;28;20344;-64
2023/05/05 09:28:46;;;;;;;;;;;;;;;;;;4964123;28;20348;-63
2023/05/05 09:31:11;;;;;;;;;;;;;;;;;;4955269;28;19921;-64
2023/05/05 09:33:42;;;;;;;;;;;;;;;;;;4956348;28;20333;-64
2023/05/05 09:36:11;;;;;;;;;;;;;;;;;;4970999;28;20426;-64
2023/05/05 09:38:36;;;;;;;;;;;;;;;;;;4951423;28;19921;-64
2023/05/05 09:41:05;;;;;;;;;;;;;;;;;;4966810;28;19921;-64
2023/05/05 09:43:30;;;;;;;;;;;;;;;;;;4961897;28;19944;-64
2023/05/05 09:45:55;;;;;;;;;;;;;;;;;;4977433;28;20488;-63
2023/05/05 09:48:23;;;;;;;;;;;;;;;;;;4948925;28;19929;-64
2023/05/05 09:50:49;;;;;;;;;;;;;;;;;;4959141;28;19928;-63
2023/05/05 09:53:14;;;;;;;;;;;;;;;;;;4980230;28;19957;-63
2023/05/05 09:55:40;;;;;;;;;;;;;;;;;;4967168;28;20017;-62
2023/05/05 09:58:05;;;;;;;;;;;;;;;;;;4968043;28;19969;-65
2023/05/05 10:00:36;;;;;;;;;;;;;;;;;;4964666;28;20391;-63
2023/05/05 10:03:01;;;;;;;;;;;;;;;;;;4968669;28;19917;-63
2023/05/05 10:05:29;;;;;;;;;;;;;;;;;;4979546;28;19961;-63
2023/05/05 10:07:54;;;;;;;;;;;;;;;;;;4969165;28;20464;-64
2023/05/05 10:10:22;;;;;;;;;;;;;;;;;;4976345;28;19921;-64
2023/05/05 10:12:48;;;;;;;;;;;;;;;;;;4972761;28;20019;-64
2023/05/05 10:15:13;;;;;;;;;;;;;;;;;;4966348;28;19918;-65
2023/05/05 10:17:38;;;;;;;;;;;;;;;;;;4971210;28;19922;-64
2023/05/05 10:20:04;;;;;;;;;;;;;;;;;;4989848;28;19979;-64
2023/05/05 10:22:29;;;;;;;;;;;;;;;;;;4949814;28;19928;-64
2023/05/05 10:24:55;;;;;;;;;;;;;;;;;;4983792;28;20872;-64
2023/05/05 10:27:23;;;;;;;;;;;;;;;;;;4964176;28;20016;-64
2023/05/05 10:29:51;;;;;;;;;;;;;;;;;;4969239;28;20349;-63
2023/05/05 10:32:19;;;;;;;;;;;;;;;;;;4971784;28;20396;-64
2023/05/05 10:34:47;;;;;;;;;;;;;;;;;;4966984;28;20012;-65
2023/05/05 10:37:12;;;;;;;;;;;;;;;;;;4973182;28;19926;-64
2023/05/05 10:39:37;;;;;;;;;;;;;;;;;;4975019;28;19918;-64
2023/05/05 10:42:03;;;;;;;;;;;;;;;;;;4955622;28;19996;-63
2023/05/05 10:44:30;;;;;;;;;;;;;;;;;;4948937;28;19928;-63
2023/05/05 10:46:58;;;;;;;;;;;;;;;;;;4984534;28;19944;-64
2023/05/05 10:49:23;;;;;;;;;;;;;;;;;;4979577;28;20373;-65
2023/05/05 10:51:48;;;;;;;;;;;;;;;;;;4961254;28;19921;-64
2023/05/05 10:54:16;;;;;;;;;;;;;;;;;;4955303;28;20016;-64
2023/05/05 10:56:44;;;;;;;;;;;;;;;;;;4971378;28;19929;-64
2023/05/05 10:59:15;;;;;;;;;;;;;;;;;;4981365;28;19957;-64
2023/05/05 11:01:43;;;;;;;;;;;;;;;;;;4954245;28;19921;-62
2023/05/05 11:04:08;;;;;;;;;;;;;;;;;;4961639;28;19917;-61
2023/05/05 11:06:36;;;;;;;;;;;;;;;;;;4970591;28;19917;-65
2023/05/05 11:09:01;;;;;;;;;;;;;;;;;;4981054;28;19925;-63
2023/05/05 11:11:26;;;;;;;;;;;;;;;;;;4962176;28;19933;-64
2023/05/05 11:13:52;;;;;;;;;;;;;;;;;;4978053;28;19928;-65
2023/05/05 11:16:17;;;;;;;;;;;;;;;;;;4957459;28;20032;-64
2023/05/05 11:18:43;;;;;;;;;;;;;;;;;;4969217;28;20573;-66
2023/05/05 11:21:17;;;;;;;;;;;;;;;;;;4962922;28;20153;-63
2023/05/05 11:23:45;;;;;;;;;;;;;;;;;;4946315;28;20341;-65
2023/05/05 11:26:11;;;;;;;;;;;;;;;;;;4957857;28;19934;-63
2023/05/05 11:28:36;;;;;;;;;;;;;;;;;;4969373;28;19921;-63
2023/05/05 11:31:01;;;;;;;;;;;;;;;;;;4962632;28;20178;-64
2023/05/05 11:33:29;;;;;;;;;;;;;;;;;;4959739;28;19937;-64
2023/05/05 11:35:55;;;;;;;;;;;;;;;;;;4956430;28;20360;-65
2023/05/05 11:38:23;;;;;;;;;;;;;;;;;;4952615;28;19988;-64
2023/05/05 11:40:48;;;;;;;;;;;;;;;;;;4978234;28;19926;-63
2023/05/05 11:43:14;;;;;;;;;;;;;;;;;;4963959;28;20316;-64
2023/05/05 11:45:39;;;;;;;;;;;;;;;;;;4953568;28;19933;-65
2023/05/05 11:48:07;;;;;;;;;;;;;;;;;;4963347;28;19928;-64
2023/05/05 11:50:38;;;;;;;;;;;;;;;;;;4962462;28;20091;-64
2023/05/05 11:53:06;;;;;;;;;;;;;;;;;;4977523;28;19922;-64
2023/05/05 11:55:31;;;;;;;;;;;;;;;;;;4969378;28;19932;-64
2023/05/05 11:57:59;;;;;;;;;;;;;;;;;;4979606;28;19960;-66
2023/05/05 12:00:26;;;;;;;;;;;;;;;;;;4961151;28;19941;-64
2023/05/05 12:02:57;;;;;;;;;;;;;;;;;;4962889;28;19956;-64
2023/05/05 12:05:27;;;;;;;;;;;;;;;;;;4965689;28;19922;-64
2023/05/05 12:07:52;;;;;;;;;;;;;;;;;;4965512;28;19934;-63
2023/05/05 12:10:18;;;;;;;;;;;;;;;;;;4960951;28;20635;-64
2023/05/05 12:12:46;;;;;;;;;;;;;;;;;;4963445;28;19932;-64
2023/05/05 12:15:14;;;;;;;;;;;;;;;;;;4979814;28;20404;-64
2023/05/05 12:17:41;;;;;;;;;;;;;;;;;;4961371;28;19921;-64
2023/05/05 12:20:08;;;;;;;;;;;;;;;;;;4952915;28;20424;-65
2023/05/05 12:22:37;;;;;;;;;;;;;;;;;;4979975;28;19922;-64
2023/05/05 12:25:02;;;;;;;;;;;;;;;;;;4962805;28;19925;-64
2023/05/05 12:27:27;;;;;;;;;;;;;;;;;;4951233;28;20024;-64
2023/05/05 12:29:56;;;;;;;;;;;;;;;;;;4980072;28;20315;-63
2023/05/05 12:32:24;;;;;;;;;;;;;;;;;;4981573;28;19989;-63
2023/05/05 12:34:49;;;;;;;;;;;;;;;;;;4958477;28;20401;-64
2023/05/05 12:37:17;;;;;;;;;;;;;;;;;;4954754;28;19932;-64
2023/05/05 12:39:43;;;;;;;;;;;;;;;;;;4954294;28;20377;-64
2023/05/05 12:42:09;;;;;;;;;;;;;;;;;;4953677;28;19921;-64
2023/05/05 12:44:35;;;;;;;;;;;;;;;;;;4968433;28;19922;-64
2023/05/05 12:47:03;;;;;;;;;;;;;;;;;;4967811;28;19921;-64
2023/05/05 12:49:28;;;;;;;;;;;;;;;;;;4950327;28;20005;-65
2023/05/05 12:51:59;;;;;;;;;;;;;;;;;;4958929;28;20488;-64
2023/05/05 12:54:28;;;;;;;;;;;;;;;;;;4944822;28;20054;-63
2023/05/05 12:56:55;;;;;;;;;;;;;;;;;;4957904;28;20034;-63
2023/05/05 12:59:23;;;;;;;;;;;;;;;;;;4946370;28;19917;-62
2023/05/05 13:01:51;;;;;;;;;;;;;;;;;;4949568;28;19917;-65
2023/05/05 13:04:22;;;;;;;;;;;;;;;;;;4955760;28;19922;-64
2023/05/05 13:06:47;;;;;;;;;;;;;;;;;;4960501;28;20444;-64
2023/05/05 13:09:12;;;;;;;;;;;;;;;;;;4947910;28;19948;-63
2023/05/05 13:11:38;;;;;;;;;;;;;;;;;;4966400;28;20390;-63
2023/05/05 13:14:03;;;;;;;;;;;;;;;;;;4959895;28;19972;-64
2023/05/05 13:16:28;;;;;;;;;;;;;;;;;;4967682;28;20289;-65
2023/05/05 13:18:56;;;;;;;;;;;;;;;;;;4962880;28;19924;-66
2023/05/05 13:21:21;;;;;;;;;;;;;;;;;;4954602;28;19995;-65
2023/05/05 13:23:47;;;;;;;;;;;;;;;;;;4961503;28;20032;-65
2023/05/05 13:26:12;;;;;;;;;;;;;;;;;;4953499;28;19931;-66
2023/05/05 13:28:37;;;;;;;;;;;;;;;;;;4967866;28;20300;-65
2023/05/05 13:31:05;;;;;;;;;;;;;;;;;;4947782;28;20249;-64
2023/05/05 13:33:33;;;;;;;;;;;;;;;;;;4963901;28;19949;-65
2023/05/05 13:35:58;;;;;;;;;;;;;;;;;;4950284;28;19925;-65
2023/05/05 13:38:24;;;;;;;;;;;;;;;;;;4980861;28;19924;-66
2023/05/05 13:40:50;;;;;;;;;;;;;;;;;;4945255;28;19976;-67
2023/05/05 13:43:18;;;;;;;;;;;;;;;;;;4943055;28;19918;-63
2023/05/05 13:45:46;;;;;;;;;;;;;;;;;;4952952;28;19984;-66
2023/05/05 13:48:11;;;;;;;;;;;;;;;;;;4971142;28;20044;-64
2023/05/05 13:50:40;;;;;;;;;;;;;;;;;;4956046;28;19986;-63
2023/05/05 13:53:08;;;;;;;;;;;;;;;;;;4951187;28;20429;-66
2023/05/05 13:55:33;;;;;;;;;;;;;;;;;;4941894;28;19940;-67
2023/05/05 13:57:59;;;;;;;;;;;;;;;;;;4970984;28;20313;-67
2023/05/05 14:00:29;;;;;;;;;;;;;;;;;;4961644;28;20009;-68
2023/05/05 14:02:57;;;;;;;;;;;;;;;;;;4956215;28;19975;-64
2023/05/05 14:05:25;;;;;;;;;;;;;;;;;;4949797;28;19928;-66
2023/05/05 14:07:51;;;;;;;;;;;;;;;;;;4953494;28;19921;-66
2023/05/05 14:10:16;;;;;;;;;;;;;;;;;;4957719;28;19917;-66
2023/05/05 14:12:41;;;;;;;;;;;;;;;;;;4972495;28;20149;-71
2023/05/05 14:15:07;;;;;;;;;;;;;;;;;;4966622;28;19925;-66
2023/05/05 14:17:32;;;;;;;;;;;;;;;;;;4957100;28;19980;-66
2023/05/05 14:20:00;;;;;;;;;;;;;;;;;;4978008;28;21626;-64
2023/05/05 14:22:26;;;;;;;;;;;;;;;;;;4979870;28;19918;-66
2023/05/05 14:24:52;;;;;;;;;;;;;;;;;;4976642;28;20572;-66
2023/05/05 14:27:17;;;;;;;;;;;;;;;;;;4969257;28;19921;-65
2023/05/05 14:29:42;;;;;;;;;;;;;;;;;;4950495;28;20966;-67
2023/05/05 14:32:08;;;;;;;;;;;;;;;;;;4965456;28;19933;-65
2023/05/05 14:34:33;;;;;;;;;;;;;;;;;;4962624;28;19925;-64
2023/05/05 14:37:02;;;;;;;;;;;;;;;;;;4965789;28;20295;-65
2023/05/05 14:39:27;;;;;;;;;;;;;;;;;;4952980;28;19949;-65
2023/05/05 14:41:53;;;;;;;;;;;;;;;;;;4965066;28;20012;-67
2023/05/05 14:44:18;;;;;;;;;;;;;;;;;;4977702;28;20106;-67
2023/05/05 14:46:44;;;;;;;;;;;;;;;;;;4959577;28;20001;-66
2023/05/05 14:49:09;;;;;;;;;;;;;;;;;;4971779;28;19925;-66
2023/05/05 14:51:35;;;;;;;;;;;;;;;;;;4964403;28;20427;-66
2023/05/05 14:54:00;;;;;;;;;;;;;;;;;;4969604;28;20506;-66
2023/05/05 14:56:27;;;;;;;;;;;;;;;;;;4983760;28;20024;-65
2023/05/05 14:58:54;;;;;;;;;;;;;;;;;;4976028;28;19960;-64
2023/05/05 15:01:19;;;;;;;;;;;;;;;;;;4980449;28;20079;-65
2023/05/05 15:03:45;;;;;;;;;;;;;;;;;;4975830;28;19917;-64
2023/05/05 15:06:10;;;;;;;;;;;;;;;;;;4962527;28;19929;-64
2023/05/05 15:08:37;;;;;;;;;;;;;;;;;;4962160;28;19922;-64
2023/05/05 15:11:03;;;;;;;;;;;;;;;;;;4952904;28;19983;-64
2023/05/05 15:13:29;;;;;;;;;;;;;;;;;;4977377;28;20599;-65
2023/05/05 15:15:54;;;;;;;;;;;;;;;;;;4956078;28;19933;-64
2023/05/05 15:18:20;;;;;;;;;;;;;;;;;;4967268;28;20308;-64
2023/05/05 15:20:45;;;;;;;;;;;;;;;;;;4984958;28;20274;-66
2023/05/05 15:23:11;;;;;;;;;;;;;;;;;;4961078;28;19971;-66
2023/05/05 15:25:38;;;;;;;;;;;;;;;;;;4971253;28;19999;-67
2023/05/05 15:28:04;;;;;;;;;;;;;;;;;;4968585;28;19922;-66
2023/05/05 15:30:29;;;;;;;;;;;;;;;;;;4962562;28;21514;-67
2023/05/05 15:32:54;;;;;;;;;;;;;;;;;;4951026;28;19979;-67
2023/05/05 15:35:20;;;;;;;;;;;;;;;;;;4975823;28;19940;-68
2023/05/05 15:37:46;;;;;;;;;;;;;;;;;;4952466;28;20417;-68
2023/05/05 15:40:11;;;;;;;;;;;;;;;;;;4959698;28;20405;-68
2023/05/05 15:42:37;;;;;;;;;;;;;;;;;;4978837;28;20025;-67
2023/05/05 15:45:02;;;;;;;;;;;;;;;;;;4943604;28;20460;-68
2023/05/05 15:47:27;;;;;;;;;;;;;;;;;;4969914;28;20658;-67
2023/05/05 15:49:52;;;;;;;;;;;;;;;;;;4964570;28;19921;-68
2023/05/05 15:52:18;;;;;;;;;;;;;;;;;;4982794;28;19921;-67
2023/05/05 15:54:46;;;;;;;;;;;;;;;;;;4961234;28;20013;-68
2023/05/05 15:57:11;;;;;;;;;;;;;;;;;;4979365;28;19943;-67
2023/05/05 15:59:37;;;;;;;;;;;;;;;;;;4953411;28;19941;-67
2023/05/05 16:02:02;;;;;;;;;;;;;;;;;;4960882;28;19921;-67
2023/05/05 16:04:27;;;;;;;;;;;;;;;;;;4978200;28;19922;-67
2023/05/05 16:06:54;;;;;;;;;;;;;;;;;;4951238;28;20041;-66
2023/05/05 16:09:21;;;;;;;;;;;;;;;;;;4971454;28;19917;-68
2023/05/05 16:11:47;;;;;;;;;;;;;;;;;;4969620;28;19921;-67
2023/05/05 16:14:12;;;;;;;;;;;;;;;;;;4977469;28;20212;-67
2023/05/05 16:16:37;;;;;;;;;;;;;;;;;;4952212;28;20681;-66
2023/05/05 16:19:03;;;;;;;;;;;;;;;;;;4953758;28;19921;-66
2023/05/05 16:21:28;;;;;;;;;;;;;;;;;;4980854;28;19933;-67
2023/05/05 16:23:54;;;;;;;;;;;;;;;;;;4967600;28;20443;-66
2023/05/05 16:26:19;;;;;;;;;;;;;;;;;;4961654;28;19945;-66
2023/05/05 16:28:45;;;;;;;;;;;;;;;;;;4973516;28;20073;-66
2023/05/05 16:31:12;;;;;;;;;;;;;;;;;;4958156;28;20487;-66
2023/05/05 16:33:39;;;;;;;;;;;;;;;;;;4966390;28;20361;-66
2023/05/05 16:36:05;;;;;;;;;;;;;;;;;;4950327;28;19960;-65
2023/05/05 16:38:30;;;;;;;;;;;;;;;;;;4974246;28;20005;-65
2023/05/05 16:40:55;;;;;;;;;;;;;;;;;;4966394;28;19917;-66